Spotsylvania, Virginia
Current Conditions -  °F | °C
As of 11:35 AM on Wednesday 22 Oct 2014 (Local Time) from KEZF Reporting Station
Light Rain Light Rain  
Wind Chill: 55°   Ceiling: 3400
Heat Index: 55°   Visibility: 10mi
Dew Point: 55°   Wind: 10mph
Humidity: 100%   Direction: 320°NW
Pressure: 29.93"   Gusts: NA
Location:  38.2°N, 77.59°W
Report Text: KEZF 221535Z AUTO 32009KT 10SM -RA OVC034 13/13 A2993 RMK AO2 P0001 T01250125
Loading
Personal Weather Stations






























Interactive Weather Map
Tropical Storm Tracking
New forecast layout! Learn more

10-Day Weather Forecast

Advertisements
Track Severe Weather on mobile